Pinos Puente, Spain
Current Conditions -  °F | °C
As of 1:30 PM on Sunday 25 Jan 2015 (Local Time) from LEGR Reporting Station
Clear Clear  
Wind Chill: 57°   Ceiling: Unl
Heat Index: 57°   Visibility: 6mi
Dew Point: 23°   Wind: 12mph
Humidity: 27%   Direction: 40°NE
Pressure: 30.27"   Gusts: NA
Location:  37.25°N, 3.75°W
Report Text: LEGR 251230Z 04010KT 360V070 CAVOK 14/M05 Q1025
Loading
Personal Weather Stations






























Interactive Weather Map New forecast layout! Learn more

10-Day Weather Forecast

Advertisements
Track Severe Weather on mobile